Trout Creek, MI (49967)

11:41 AM EDT on September 01, 2015 (GMT -0400)
MesoWest | | Change Station
CLOSE
Current Station
Personal Weather Station
Location: Kenton, MI
Elevation: 1521 ft
Nearby Weather Stations

Elev 1521 ft 46.48 °N, 88.99 °W | Updated 41 minutes ago

Mostly Cloudy
Mostly Cloudy
78 °F
Feels Like 80 °F
N
9
Wind Variable Wind from SSW
Gusts 15.0 mph

Today
High -- | Low -- °F
--% Chance of Precip.
Yesterday
High -- | Low -- °F
Precip. -- in
7:16 AM 8:35 PM
Waning Gibbous, 88% visible
Pressure 30.00 in
Visibility 10.0 miles
Clouds Mostly Cloudy 1200 ft
Heat Index 80 °F
Dew Point 70 °F
Humidity 77%
Rainfall in
Snow Depth Not available.
UV 3 out of 12
Pollen 10.40 out of 12
Air Quality Not available.
Flu Activity Not available.
METAR KLNL 011515Z AUTO 21006KT 10SM BKN012 25/20 A3000 RMK AO2 T02470199
Pressure 30.00 in
Visibility 10.0 miles
Clouds Mostly Cloudy 1200 ft
Heat Index 80 °F
Dew Point 70 °F
Humidity 77%
Rainfall in
Snow Depth Not available.
UV 3 out of 12
Pollen 10.40 out of 12
Air Quality Not available.
Flu Activity Not available.
METAR KLNL 011515Z AUTO 21006KT 10SM BKN012 25/20 A3000 RMK AO2 T02470199

10-Day Weather Forecast

×

Almanac

Astronomy

Sep. 01, 2015 Rise Set
Actual Time
Civil Twilight
Nautical Twilight
Astronomical Twilight
Moon
Length of Visible Light
Length of Day
Tomorrow will be .
, % of the Moon is Illuminated

Today's Extremes

State Highs State Lows

Community

WunderPhotos

Upload Photos

1,851,538 photos uploaded!

WunderBlogs® & News

Nearby

Air Quality

  Air Quality AQ Index Pollutant
Not available.

Snow Depth

Station Depth Elevation

Earthquake Activity

City Distance Mag. Time & Date
Minimum magnitude displayed is 2.5.

Coastal Water Temperatures

Place Temperature

Stations

Nearby Weather Stations

Station Location Temp. Windchill Dew Point Humidity Wind Precip. Elev Updated Type